Basalt, Idaho
Current Conditions -  °F | °C
As of 2:53 AM on Friday 24 Oct 2014 (Local Time) from KIDA Reporting Station
Overcast Overcast  
Wind Chill: 53°   Ceiling: 10000
Heat Index: 53°   Visibility: 10mi
Dew Point: 36°   Wind: 12mph
Humidity: 52%   Direction: 180°S
Pressure: 30.14"   Gusts: NA
Location:  43.32°N, 112.16°W
Report Text: KIDA 240853Z AUTO 18010KT 10SM OVC100 12/02 A3014 RMK AO2 SLP180 T01170022 53004
Loading
Personal Weather Stations






























Interactive Weather Map
Tropical Storm Tracking
New forecast layout! Learn more

10-Day Weather Forecast

Advertisements
Track Severe Weather on mobile